Time;durP1;ratioP1;P1;durP2;ratioP2;P2;SDS_P1;SDS_P2;PMS_P1;PMS_P2;Temp;Humidity;BMP_temperature;BMP_pressure;BME280_temperature;BME280_humidity;BME280_pressure;Samples;Min_cycle;Max_cycle;Signal;HPM_P1;HPM_P2
2023/11/29 00:01:52;;;;;;;1.75;1.65;;;;;;;2.45;100.00;100366.22;6085321;19;20006;-73
2023/11/29 00:04:00;;;;;;;2.47;2.28;;;;;;;2.57;100.00;100368.59;6085269;19;20073;-73
2023/11/29 00:06:06;;;;;;;4.63;1.65;;;;;;;2.56;100.00;100361.72;6082769;19;20022;-73
2023/11/29 00:08:15;;;;;;;3.72;2.10;;;;;;;2.58;100.00;100353.88;6085540;19;20002;-73
2023/11/29 00:10:22;;;;;;;2.80;1.60;;;;;;;2.83;100.00;100354.34;6086024;19;20003;-76
2023/11/29 00:12:27;;;;;;;2.53;1.30;;;;;;;2.96;100.00;100347.22;6086365;19;20019;-74
2023/11/29 00:14:32;;;;;;;2.00;1.52;;;;;;;3.03;100.00;100344.50;6085890;19;20019;-74
2023/11/29 00:16:37;;;;;;;1.73;1.45;;;;;;;3.15;100.00;100333.03;6080816;19;20029;-72
2023/11/29 00:18:42;;;;;;;2.38;1.85;;;;;;;3.22;100.00;100336.38;6083366;19;20012;-71
2023/11/29 00:20:47;;;;;;;1.67;1.50;;;;;;;3.23;100.00;100336.34;6083972;19;20007;-72
2023/11/29 00:22:52;;;;;;;3.90;2.22;;;;;;;3.20;100.00;100319.97;6081913;19;20010;-71
2023/11/29 00:25:00;;;;;;;2.65;1.70;;;;;;;3.12;100.00;100314.91;6084624;19;20025;-72
2023/11/29 00:27:05;;;;;;;4.35;2.72;;;;;;;3.02;100.00;100314.22;6079093;19;20011;-74
2023/11/29 00:29:10;;;;;;;6.55;2.17;;;;;;;2.93;100.00;100305.75;6082097;19;20010;-71
2023/11/29 00:31:15;;;;;;;2.65;1.60;;;;;;;2.91;100.00;100307.53;6083967;19;20007;-71
2023/11/29 00:33:20;;;;;;;2.78;1.77;;;;;;;2.84;100.00;100304.16;6084869;19;20481;-74
2023/11/29 00:35:25;;;;;;;1.40;1.30;;;;;;;2.79;100.00;100305.97;6082647;19;20081;-71
2023/11/29 00:37:27;;;;;;;2.92;1.38;;;;;;;2.89;100.00;100304.09;6084736;19;20011;-71
2023/11/29 00:39:32;;;;;;;4.90;1.80;;;;;;;3.35;100.00;100304.09;6084115;19;20340;-73
2023/11/29 00:41:40;;;;;;;4.78;1.65;;;;;;;3.51;100.00;100302.91;6085025;19;20027;-71
2023/11/29 00:43:45;;;;;;;4.90;1.60;;;;;;;3.47;100.00;100290.84;6084855;19;20063;-71
2023/11/29 00:45:50;;;;;;;6.00;1.48;;;;;;;3.61;100.00;100276.75;6080825;19;20047;-73
2023/11/29 00:47:56;;;;;;;2.28;1.50;;;;;;;3.67;100.00;100279.22;6082471;19;20456;-73
2023/11/29 00:50:01;;;;;;;4.22;1.40;;;;;;;3.80;100.00;100277.22;6080871;19;20032;-72
2023/11/29 00:52:07;;;;;;;6.90;1.55;;;;;;;3.87;100.00;100273.56;6083522;19;20021;-73
2023/11/29 00:54:11;;;;;;;5.68;1.33;;;;;;;3.78;100.00;100276.38;6078193;19;20006;-73
2023/11/29 00:56:16;;;;;;;1.08;1.08;;;;;;;3.89;100.00;100272.66;6082627;19;20514;-73
2023/11/29 00:58:25;;;;;;;4.35;1.60;;;;;;;4.17;100.00;100272.03;6082631;19;20015;-71
2023/11/29 01:00:29;;;;;;;5.65;2.17;;;;;;;4.04;100.00;100265.41;6083387;19;20558;-71
2023/11/29 01:02:34;;;;;;;6.07;1.75;;;;;;;4.16;100.00;100265.09;6084192;19;20309;-72
2023/11/29 01:04:39;;;;;;;4.70;1.77;;;;;;;4.22;100.00;100272.78;6084692;19;20142;-72
2023/11/29 01:06:44;;;;;;;2.78;1.52;;;;;;;4.38;100.00;100268.06;6083751;19;20010;-72
2023/11/29 01:08:46;;;;;;;1.77;1.20;;;;;;;4.32;100.00;100271.69;6085080;19;20038;-72
2023/11/29 01:10:51;;;;;;;2.28;1.65;;;;;;;4.47;100.00;100280.00;6083555;19;20007;-72
2023/11/29 01:12:56;;;;;;;4.75;2.03;;;;;;;4.37;100.00;100274.16;6082155;19;20003;-72
2023/11/29 01:15:04;;;;;;;6.78;2.75;;;;;;;4.25;100.00;100258.84;6082158;19;20013;-75
2023/11/29 01:17:11;;;;;;;4.28;1.55;;;;;;;4.17;100.00;100251.22;6084063;19;20573;-75
2023/11/29 01:19:16;;;;;;;5.28;1.38;;;;;;;4.15;100.00;100260.81;6085594;19;20011;-75
2023/11/29 01:21:21;;;;;;;8.38;2.00;;;;;;;4.41;100.00;100249.78;6085452;19;20018;-74
2023/11/29 01:23:35;;;;;;;1.63;1.52;;;;;;;4.28;100.00;100269.19;5995810;19;2004827;-74
2023/11/29 01:25:40;;;;;;;2.15;1.90;;;;;;;4.23;100.00;100251.06;6084637;19;20913;-75
2023/11/29 01:27:46;;;;;;;2.75;1.67;;;;;;;4.15;100.00;100247.81;6081387;19;20324;-74
2023/11/29 01:29:51;;;;;;;2.40;1.85;;;;;;;4.03;100.00;100246.38;6079717;19;20006;-75
2023/11/29 01:31:58;;;;;;;2.95;1.85;;;;;;;3.97;100.00;100243.88;6083811;19;19999;-75
2023/11/29 01:34:03;;;;;;;2.13;1.92;;;;;;;4.09;100.00;100241.00;6081462;19;20380;-74
2023/11/29 01:36:11;;;;;;;2.55;1.48;;;;;;;4.10;100.00;100229.72;6082739;19;20423;-74
2023/11/29 01:38:16;;;;;;;7.47;2.03;;;;;;;3.92;100.00;100240.53;6084075;19;20031;-72
2023/11/29 01:40:20;;;;;;;5.57;1.85;;;;;;;3.90;100.00;100245.78;6080996;19;20119;-71
2023/11/29 01:42:25;;;;;;;3.85;2.05;;;;;;;4.09;100.00;100234.97;6082459;19;20010;-73
2023/11/29 01:44:29;;;;;;;4.57;2.45;;;;;;;4.06;100.00;100237.63;6079813;19;20356;-74
2023/11/29 01:46:32;;;;;;;5.85;2.20;;;;;;;4.00;100.00;100235.16;6084640;19;20030;-74
2023/11/29 01:48:41;;;;;;;4.38;1.50;;;;;;;4.06;100.00;100237.63;6085338;19;20114;-73
2023/11/29 01:50:48;;;;;;;2.75;1.73;;;;;;;3.95;100.00;100233.53;6087129;19;20010;-73
2023/11/29 01:52:57;;;;;;;5.43;2.00;;;;;;;4.09;100.00;100232.38;6083151;19;20010;-73
2023/11/29 01:55:02;;;;;;;1.80;1.70;;;;;;;3.94;100.00;100238.75;6085171;19;20006;-73
2023/11/29 01:57:07;;;;;;;2.58;1.92;;;;;;;3.88;100.00;100234.56;6084280;19;20343;-73
2023/11/29 01:59:12;;;;;;;5.53;2.35;;;;;;;3.86;100.00;100233.72;6080560;19;20014;-74
2023/11/29 02:01:17;;;;;;;1.80;1.33;;;;;;;4.01;100.00;100229.09;6085614;19;20125;-73
2023/11/29 02:03:23;;;;;;;3.13;1.48;;;;;;;3.99;100.00;100234.31;6085178;19;20007;-74
2023/11/29 02:05:32;;;;;;;3.00;1.55;;;;;;;3.99;100.00;100226.50;6085367;19;20328;-73
2023/11/29 02:07:37;;;;;;;4.78;1.67;;;;;;;4.01;100.00;100221.28;6085508;19;20018;-72
2023/11/29 02:09:42;;;;;;;6.00;2.00;;;;;;;3.97;100.00;100221.34;6085983;19;20046;-73
2023/11/29 02:11:48;;;;;;;8.40;1.70;;;;;;;4.05;100.00;100228.97;6073631;19;20005;-73
2023/11/29 02:13:53;;;;;;;3.42;1.30;;;;;;;4.13;100.00;100228.78;6083102;19;20021;-72
2023/11/29 02:16:02;;;;;;;4.35;1.20;;;;;;;4.05;100.00;100221.16;6084515;19;20748;-72
2023/11/29 02:18:08;;;;;;;1.88;1.20;;;;;;;3.93;100.00;100222.31;6081760;19;20573;-72
2023/11/29 02:20:16;;;;;;;2.10;1.42;;;;;;;3.95;100.00;100220.53;6082731;19;20014;-72
2023/11/29 02:22:27;;;;;;;4.00;1.38;;;;;;;3.86;100.00;100219.88;6082780;19;20014;-71
2023/11/29 02:24:37;;;;;;;4.45;1.20;;;;;;;3.85;100.00;100213.00;6081025;19;20569;-71
2023/11/29 02:26:45;;;;;;;3.42;1.52;;;;;;;4.04;100.00;100216.00;6084043;19;20018;-72
2023/11/29 02:28:50;;;;;;;2.55;1.38;;;;;;;4.15;98.72;100209.66;6079591;19;20003;-73
2023/11/29 02:30:55;;;;;;;2.67;1.73;;;;;;;4.23;100.00;100221.63;6083299;19;20017;-72
2023/11/29 02:33:00;;;;;;;2.70;1.25;;;;;;;3.92;100.00;100244.00;6080144;19;20036;-72
2023/11/29 02:35:06;;;;;;;3.17;1.58;;;;;;;3.66;100.00;100243.72;6081338;19;20018;-72
2023/11/29 02:37:11;;;;;;;1.08;1.08;;;;;;;3.42;100.00;100240.78;6082807;19;20010;-73
2023/11/29 02:39:16;;;;;;;7.72;1.83;;;;;;;3.30;100.00;100239.25;6082543;19;20365;-72
2023/11/29 02:41:18;;;;;;;2.63;1.10;;;;;;;3.20;100.00;100224.75;6082188;19;20011;-72
2023/11/29 02:43:25;;;;;;;5.28;1.90;;;;;;;3.15;100.00;100221.41;6082267;19;20010;-71
2023/11/29 02:45:30;;;;;;;2.10;1.45;;;;;;;3.17;100.00;100213.59;6087698;19;20006;-71
2023/11/29 02:47:35;;;;;;;4.43;1.75;;;;;;;3.15;100.00;100210.16;6085551;19;20446;-71
2023/11/29 02:49:38;;;;;;;1.30;1.20;;;;;;;3.25;100.00;100219.47;6089107;19;20021;-74
2023/11/29 02:51:43;;;;;;;3.15;1.52;;;;;;;3.33;100.00;100220.16;6087822;19;20042;-73
2023/11/29 02:53:48;;;;;;;3.72;1.30;;;;;;;3.37;100.00;100201.06;6082370;19;20421;-72
2023/11/29 02:55:53;;;;;;;2.30;1.60;;;;;;;3.30;100.00;100191.69;6088135;19;20018;-73
2023/11/29 02:57:59;;;;;;;3.42;1.52;;;;;;;3.21;100.00;100184.94;6087164;19;20019;-72
2023/11/29 03:00:09;;;;;;;3.28;1.52;;;;;;;3.24;100.00;100184.03;6084543;19;20826;-71
2023/11/29 03:02:16;;;;;;;2.22;1.05;;;;;;;3.21;100.00;100171.09;6088918;19;20010;-73
2023/11/29 03:04:22;;;;;;;1.25;1.13;;;;;;;3.23;100.00;100167.56;6088093;19;20018;-73
2023/11/29 03:06:26;;;;;;;2.70;1.83;;;;;;;3.20;100.00;100162.44;6089241;19;20446;-74
2023/11/29 03:08:31;;;;;;;4.95;2.08;;;;;;;3.22;100.00;100165.03;6086381;19;20007;-73
2023/11/29 03:10:36;;;;;;;1.58;1.13;;;;;;;3.18;100.00;100163.38;6084815;19;20017;-71
2023/11/29 03:12:41;;;;;;;3.75;1.80;;;;;;;3.24;100.00;100161.50;6086391;19;20417;-72
2023/11/29 03:14:46;;;;;;;5.30;1.42;;;;;;;3.23;100.00;100166.72;6087810;19;20018;-72
2023/11/29 03:16:53;;;;;;;3.70;1.13;;;;;;;3.23;100.00;100158.94;6087802;19;20081;-71
2023/11/29 03:18:58;;;;;;;4.88;2.10;;;;;;;3.24;100.00;100156.31;6085714;19;20550;-71
2023/11/29 03:21:00;;;;;;;2.22;1.60;;;;;;;3.19;100.00;100152.09;6086439;19;20787;-72
2023/11/29 03:23:05;;;;;;;1.98;1.60;;;;;;;3.19;100.00;100146.91;6087456;19;20006;-74
2023/11/29 03:25:11;;;;;;;2.35;1.05;;;;;;;3.15;100.00;100155.66;6086736;19;20026;-74
2023/11/29 03:27:19;;;;;;;2.72;1.30;;;;;;;3.19;100.00;100149.50;6088679;19;20006;-74
2023/11/29 03:29:24;;;;;;;5.05;1.70;;;;;;;3.10;100.00;100147.94;6087245;19;20033;-71
2023/11/29 03:31:27;;;;;;;3.50;1.50;;;;;;;3.15;100.00;100140.91;6087893;19;20022;-71
2023/11/29 03:33:34;;;;;;;4.07;1.48;;;;;;;3.20;100.00;100144.28;6088812;19;20002;-71
2023/11/29 03:35:40;;;;;;;1.50;1.25;;;;;;;3.20;100.00;100146.03;6084570;19;20046;-73
2023/11/29 03:37:45;;;;;;;4.25;1.58;;;;;;;3.26;100.00;100157.09;6087599;19;20463;-74
2023/11/29 03:39:50;;;;;;;1.80;1.20;;;;;;;3.37;100.00;100193.25;6087673;19;20007;-72
2023/11/29 03:41:55;;;;;;;4.72;1.70;;;;;;;3.00;100.00;100155.09;6087567;19;20011;-73
2023/11/29 03:43:57;;;;;;;1.05;0.85;;;;;;;2.88;100.00;100178.69;6087491;19;20014;-74
2023/11/29 03:46:02;;;;;;;2.25;1.10;;;;;;;2.72;100.00;100170.34;6086425;19;20006;-74
2023/11/29 03:48:10;;;;;;;0.88;0.82;;;;;;;2.61;100.00;100167.94;6086969;19;20581;-72
2023/11/29 03:50:18;;;;;;;1.00;0.90;;;;;;;2.55;100.00;100152.47;6083848;19;20022;-74
2023/11/29 03:52:24;;;;;;;0.60;0.60;;;;;;;2.41;100.00;100136.34;6083721;19;20015;-73
2023/11/29 03:54:29;;;;;;;2.38;1.08;;;;;;;2.37;100.00;100143.31;6086639;19;20344;-75
2023/11/29 03:56:34;;;;;;;1.10;1.10;;;;;;;2.42;100.00;100131.13;6084077;19;20454;-74
2023/11/29 03:58:39;;;;;;;2.03;1.25;;;;;;;2.42;100.00;100136.31;6085734;19;20056;-77
2023/11/29 04:00:44;;;;;;;0.50;0.50;;;;;;;2.41;100.00;100133.75;6083698;19;20082;-75
2023/11/29 04:02:49;;;;;;;2.63;1.33;;;;;;;2.37;100.00;100138.13;6085448;19;20011;-72
2023/11/29 04:04:54;;;;;;;1.00;0.90;;;;;;;2.45;100.00;100132.81;6087802;19;20347;-72
2023/11/29 04:07:00;;;;;;;0.90;0.90;;;;;;;2.51;100.00;100131.84;6087378;19;20377;-76
2023/11/29 04:09:05;;;;;;;0.70;0.70;;;;;;;2.49;100.00;100126.66;6086259;19;20007;-75
2023/11/29 04:11:13;;;;;;;0.77;0.77;;;;;;;2.41;100.00;100120.78;6086409;19;20013;-76
2023/11/29 04:13:18;;;;;;;0.77;0.77;;;;;;;2.35;100.00;100120.91;6084666;19;20038;-75
2023/11/29 04:15:22;;;;;;;0.75;0.60;;;;;;;2.27;100.00;100120.19;6086131;19;20006;-75
2023/11/29 04:17:27;;;;;;;1.27;0.73;;;;;;;2.26;100.00;100113.28;6089068;19;20112;-76
2023/11/29 04:19:35;;;;;;;0.98;0.75;;;;;;;2.26;100.00;100118.47;6086660;19;20027;-74
2023/11/29 04:21:39;;;;;;;1.60;0.85;;;;;;;2.26;100.00;100108.94;6085435;19;20010;-75
2023/11/29 04:23:47;;;;;;;1.27;1.10;;;;;;;2.29;100.00;100102.84;6087029;19;20501;-76
2023/11/29 04:25:52;;;;;;;0.68;0.68;;;;;;;2.23;100.00;100098.63;6082877;19;20391;-75
2023/11/29 04:27:57;;;;;;;3.10;1.13;;;;;;;2.20;100.00;100094.34;6084704;19;20013;-73
2023/11/29 04:29:59;;;;;;;0.70;0.70;;;;;;;2.22;100.00;100085.72;6084897;19;20011;-74
2023/11/29 04:32:04;;;;;;;1.15;0.90;;;;;;;2.25;100.00;100076.13;6085873;19;20017;-73
2023/11/29 04:34:10;;;;;;;1.75;1.00;;;;;;;2.33;100.00;100061.28;6086226;19;20046;-75
2023/11/29 04:36:34;;;;;;;1.10;1.08;;;;;;;2.39;100.00;100055.13;6087715;19;20498;-74
2023/11/29 04:38:40;;;;;;;1.15;1.00;;;;;;;2.45;100.00;100068.00;6084223;19;20010;-72
2023/11/29 04:40:51;;;;;;;3.08;0.75;;;;;;;2.46;100.00;100090.44;6086519;19;20514;-74
2023/11/29 04:42:56;;;;;;;0.70;0.70;;;;;;;2.50;100.00;100096.41;6088259;19;20002;-73
2023/11/29 04:44:58;;;;;;;1.73;1.17;;;;;;;2.53;100.00;100089.44;6086199;19;20038;-74
2023/11/29 04:47:04;;;;;;;1.00;1.00;;;;;;;2.49;100.00;100095.56;6087270;19;20014;-73
2023/11/29 04:49:09;;;;;;;1.00;0.90;;;;;;;2.44;100.00;100081.81;6085009;19;20039;-75
2023/11/29 04:51:15;;;;;;;3.05;2.08;;;;;;;2.49;100.00;100092.97;6082504;19;20014;-73
2023/11/29 04:53:20;;;;;;;4.32;1.77;;;;;;;2.56;100.00;100096.31;6086364;19;20047;-74
2023/11/29 04:55:28;;;;;;;6.50;0.90;;;;;;;2.64;100.00;100091.81;6085740;19;20452;-71
2023/11/29 04:57:33;;;;;;;2.80;1.15;;;;;;;3.17;100.00;100100.22;6086981;19;20466;-72
2023/11/29 04:59:40;;;;;;;3.20;1.73;;;;;;;3.44;100.00;100114.31;6086456;19;20031;-73
2023/11/29 05:01:45;;;;;;;2.53;0.93;;;;;;;3.46;100.00;100114.28;6086187;19;20483;-72
2023/11/29 05:03:47;;;;;;;0.73;0.73;;;;;;;3.33;100.00;100110.25;6086782;19;20474;-75
2023/11/29 05:05:53;;;;;;;0.82;0.82;;;;;;;3.32;100.00;100112.00;6085309;19;20042;-72
2023/11/29 05:08:01;;;;;;;0.52;0.52;;;;;;;3.22;100.00;100105.31;6083228;19;20473;-73
2023/11/29 05:10:07;;;;;;;1.10;0.80;;;;;;;3.12;100.00;100116.78;6082685;19;20043;-72
2023/11/29 05:12:12;;;;;;;0.75;0.75;;;;;;;3.00;100.00;100123.06;6085235;19;20108;-73
2023/11/29 05:14:17;;;;;;;3.40;0.65;;;;;;;2.92;100.00;100115.44;6082639;19;20013;-72
2023/11/29 05:16:23;;;;;;;1.23;0.88;;;;;;;2.88;100.00;100098.25;6086129;19;20011;-75
2023/11/29 05:18:29;;;;;;;3.17;0.70;;;;;;;2.83;100.00;100100.06;6085353;19;20020;-76
2023/11/29 05:20:31;;;;;;;0.93;0.82;;;;;;;2.85;100.00;100087.94;6086530;19;20033;-74
2023/11/29 05:22:36;;;;;;;0.70;0.70;;;;;;;2.83;100.00;100084.50;6085379;19;20034;-76
2023/11/29 05:24:42;;;;;;;6.35;1.48;;;;;;;2.90;100.00;100086.09;6083874;19;20046;-73
2023/11/29 05:26:44;;;;;;;2.20;0.80;;;;;;;2.85;100.00;100080.16;6083600;19;20022;-73
2023/11/29 05:28:50;;;;;;;0.75;0.75;;;;;;;2.85;100.00;100085.34;6084113;19;20047;-72
2023/11/29 05:31:00;;;;;;;7.65;1.15;;;;;;;2.81;100.00;100086.28;6085554;19;20002;-72
2023/11/29 05:33:07;;;;;;;0.80;0.80;;;;;;;2.69;100.00;100089.97;6080835;19;20028;-72
2023/11/29 05:35:12;;;;;;;2.17;1.27;;;;;;;2.70;100.00;100098.63;6085098;19;20646;-73
2023/11/29 05:37:17;;;;;;;0.85;0.77;;;;;;;2.77;100.00;100124.41;6083306;19;20014;-72
2023/11/29 05:39:22;;;;;;;2.35;0.98;;;;;;;2.86;100.00;100144.97;6082812;19;20027;-72
2023/11/29 05:41:27;;;;;;;1.33;0.70;;;;;;;2.76;100.00;100142.59;6083363;19;20558;-72
2023/11/29 05:43:32;;;;;;;2.70;1.42;;;;;;;2.71;100.00;100118.47;6084042;19;20034;-73
2023/11/29 05:45:38;;;;;;;2.75;1.13;;;;;;;2.60;100.00;100103.97;6085407;19;20010;-73
2023/11/29 05:47:45;;;;;;;1.20;1.20;;;;;;;2.56;100.00;100101.50;6085900;19;20463;-74
2023/11/29 05:49:50;;;;;;;2.30;1.05;;;;;;;2.51;100.00;100103.31;6085604;19;20514;-74
2023/11/29 05:51:56;;;;;;;0.77;0.77;;;;;;;2.58;100.00;100105.75;6080898;19;20549;-76
2023/11/29 05:54:01;;;;;;;3.88;1.23;;;;;;;2.60;100.00;100105.72;6080543;19;20123;-76
2023/11/29 05:56:07;;;;;;;5.03;1.67;;;;;;;2.65;100.00;100106.47;6083404;19;20014;-76
2023/11/29 05:58:12;;;;;;;3.30;1.00;;;;;;;2.72;100.00;100113.25;6082409;19;20022;-74
2023/11/29 06:00:18;;;;;;;0.80;0.80;;;;;;;2.74;100.00;100116.69;6082316;19;20103;-75
2023/11/29 06:02:35;;;;;;;3.20;1.30;;;;;;;2.67;100.00;100120.28;6084382;19;20013;-73
2023/11/29 06:04:42;;;;;;;2.15;1.42;;;;;;;2.57;100.00;100122.19;6082402;19;20022;-74
2023/11/29 06:06:48;;;;;;;6.30;1.25;;;;;;;2.59;100.00;100135.13;6084012;19;20316;-72
2023/11/29 06:08:53;;;;;;;1.63;1.52;;;;;;;2.58;100.00;100134.28;6084252;19;20021;-73
2023/11/29 06:10:58;;;;;;;1.65;1.13;;;;;;;2.56;100.00;100141.25;6081829;19;20019;-72
2023/11/29 06:13:04;;;;;;;3.22;1.58;;;;;;;2.54;100.00;100143.00;6082240;19;20011;-74
2023/11/29 06:15:09;;;;;;;0.90;0.90;;;;;;;2.57;100.00;100144.69;6081489;19;20344;-75
2023/11/29 06:17:14;;;;;;;0.85;0.85;;;;;;;2.59;100.00;100136.00;6081637;19;20038;-73
2023/11/29 06:19:25;;;;;;;1.65;1.15;;;;;;;2.56;100.00;100137.81;6079483;19;20463;-72
2023/11/29 06:21:32;;;;;;;2.83;1.30;;;;;;;2.56;100.00;100143.84;6084298;19;20070;-71
2023/11/29 06:23:37;;;;;;;4.45;1.05;;;;;;;2.57;100.00;100145.53;6082572;19;20014;-75
2023/11/29 06:25:44;;;;;;;1.27;1.27;;;;;;;2.56;100.00;100148.19;6083797;19;20028;-74
2023/11/29 06:27:49;;;;;;;2.65;1.63;;;;;;;2.59;100.00;100148.97;6083426;19;20686;-75
2023/11/29 06:29:54;;;;;;;5.30;1.55;;;;;;;2.70;100.00;100147.91;6084682;19;20565;-75
2023/11/29 06:32:02;;;;;;;1.27;1.17;;;;;;;2.70;100.00;100160.88;6082769;19;20007;-73
2023/11/29 06:34:10;;;;;;;5.22;1.48;;;;;;;2.68;100.00;100157.44;6080114;19;20025;-72
2023/11/29 06:36:16;;;;;;;8.75;1.88;;;;;;;2.66;100.00;100164.41;6078575;19;20010;-76
2023/11/29 06:38:26;;;;;;;1.83;1.13;;;;;;;2.64;100.00;100167.03;6082971;19;20020;-74
2023/11/29 06:40:32;;;;;;;1.48;0.95;;;;;;;2.66;100.00;100175.66;6083729;19;20017;-75
2023/11/29 06:42:38;;;;;;;2.20;1.08;;;;;;;2.76;100.00;100190.13;6082155;19;20472;-76
2023/11/29 06:44:43;;;;;;;7.57;1.45;;;;;;;2.86;100.00;100207.25;6082218;19;20039;-73
2023/11/29 06:46:48;;;;;;;2.20;0.93;;;;;;;2.81;100.00;100192.66;6081384;19;20025;-75
2023/11/29 06:48:56;;;;;;;0.77;0.77;;;;;;;2.82;100.00;100194.38;6083127;19;20025;-76
2023/11/29 06:51:01;;;;;;;1.45;1.08;;;;;;;2.79;100.00;100191.81;6081566;19;20507;-73
2023/11/29 06:53:07;;;;;;;3.53;1.83;;;;;;;2.69;100.00;100191.16;6083521;19;20030;-73
2023/11/29 06:55:15;;;;;;;1.48;1.08;;;;;;;2.61;100.00;100199.06;6085191;19;20011;-75
2023/11/29 06:57:17;;;;;;;1.70;1.58;;;;;;;2.50;100.00;100206.19;6083604;19;20021;-73
2023/11/29 06:59:22;;;;;;;;;;;;;;;2.47;100.00;100208.81;6082997;19;20392;-73
2023/11/29 07:01:24;;;;;;;3.42;1.20;;;;;;;2.39;100.00;100208.94;6081414;19;20415;-74
2023/11/29 07:03:30;;;;;;;0.90;0.90;;;;;;;2.37;100.00;100209.84;6081932;19;20594;-74
2023/11/29 07:05:32;;;;;;;1.58;0.93;;;;;;;2.26;100.00;100215.22;6082691;19;20010;-72
2023/11/29 07:07:37;;;;;;;0.98;0.98;;;;;;;2.20;100.00;100216.19;6083604;19;20007;-73
2023/11/29 07:09:42;;;;;;;3.17;1.00;;;;;;;2.11;100.00;100213.75;6081593;19;20106;-74
2023/11/29 07:11:50;;;;;;;3.97;2.00;;;;;;;2.00;100.00;100215.63;6082817;19;20006;-74
2023/11/29 07:13:55;;;;;;;1.73;1.55;;;;;;;1.91;100.00;100218.38;6079525;19;20007;-74
2023/11/29 07:16:01;;;;;;;2.67;1.95;;;;;;;1.82;100.00;100215.91;6081590;19;20228;-72
2023/11/29 07:18:06;;;;;;;4.57;1.80;;;;;;;1.75;100.00;100222.94;6083741;19;20015;-73
2023/11/29 07:20:12;;;;;;;1.98;1.50;;;;;;;1.67;100.00;100225.63;6082000;19;20070;-73
2023/11/29 07:22:17;;;;;;;4.57;2.13;;;;;;;1.67;100.00;100220.44;6082518;19;20042;-74
2023/11/29 07:24:22;;;;;;;4.07;1.33;;;;;;;1.65;100.00;100226.53;6087357;19;20018;-72
2023/11/29 07:26:27;;;;;;;3.33;1.83;;;;;;;1.63;100.00;100226.53;6083147;19;20014;-73
2023/11/29 07:28:35;;;;;;;3.10;2.20;;;;;;;1.60;100.00;100231.75;6084539;19;20090;-71
2023/11/29 07:30:37;;;;;;;5.78;2.60;;;;;;;1.60;100.00;100224.00;6082267;19;20025;-73
2023/11/29 07:32:45;;;;;;;6.38;3.17;;;;;;;1.57;100.00;100225.78;6086018;19;20039;-73
2023/11/29 07:34:50;;;;;;;6.60;3.80;;;;;;;1.56;100.00;100235.28;6085384;19;20011;-72
2023/11/29 07:36:55;;;;;;;3.63;1.92;;;;;;;1.60;100.00;100244.72;6088613;19;20025;-73
2023/11/29 07:39:00;;;;;;;5.93;1.98;;;;;;;1.59;100.00;100248.19;6088490;19;20006;-73
2023/11/29 07:41:05;;;;;;;8.40;3.13;;;;;;;1.55;100.00;100249.09;6086519;19;20003;-72
2023/11/29 07:43:11;;;;;;;2.55;2.00;;;;;;;1.59;100.00;100255.97;6086843;19;20039;-72
2023/11/29 07:45:21;;;;;;;6.53;2.50;;;;;;;1.59;100.00;100258.56;6086970;19;20074;-74
2023/11/29 07:47:26;;;;;;;3.63;1.63;;;;;;;1.77;100.00;100251.41;6087748;19;20010;-72
2023/11/29 07:49:33;;;;;;;1.60;1.38;;;;;;;1.82;100.00;100254.78;6081830;19;20463;-72
2023/11/29 07:51:35;;;;;;;1.35;1.17;;;;;;;1.85;100.00;100270.31;6087332;19;20042;-73
2023/11/29 07:53:40;;;;;;;;;;;;;;;1.95;100.00;100270.16;6086451;19;20087;-73
2023/11/29 07:55:45;;;;;;;9.02;2.67;;;;;;;1.99;100.00;100268.34;6086384;19;19935;-72
2023/11/29 07:57:50;;;;;;;1.60;1.50;;;;;;;1.94;100.00;100270.16;6083535;19;20478;-72
2023/11/29 07:59:55;;;;;;;4.95;2.20;;;;;;;1.90;100.00;100271.94;6082136;19;20014;-72
2023/11/29 08:02:03;;;;;;;1.13;1.13;;;;;;;1.89;100.00;100275.41;6085705;19;20039;-74
2023/11/29 08:04:09;;;;;;;2.95;2.03;;;;;;;1.91;100.00;100267.63;6084771;19;20010;-75
2023/11/29 08:06:14;;;;;;;2.42;1.80;;;;;;;2.01;100.00;100286.50;6086296;19;20007;-72
2023/11/29 08:08:19;;;;;;;5.65;1.45;;;;;;;2.14;100.00;100281.09;6078136;19;20011;-73
2023/11/29 08:10:21;;;;;;;1.23;1.23;;;;;;;2.16;100.00;100292.31;6086454;19;20472;-72
2023/11/29 08:12:26;;;;;;;4.10;1.60;;;;;;;2.28;100.00;100293.00;6082418;19;20015;-73
2023/11/29 08:14:34;;;;;;;2.75;1.73;;;;;;;2.31;100.00;100311.94;6088496;19;20734;-73
2023/11/29 08:16:39;;;;;;;7.20;1.67;;;;;;;2.40;100.00;100311.81;6086488;19;20356;-75
2023/11/29 08:18:47;;;;;;;4.28;2.05;;;;;;;2.49;100.00;100310.81;6086175;19;20524;-72
2023/11/29 08:20:52;;;;;;;3.90;2.08;;;;;;;2.60;100.00;100313.22;6085031;19;20412;-72
2023/11/29 08:22:57;;;;;;;4.55;1.92;;;;;;;2.66;100.00;100323.50;6086934;19;20015;-72
2023/11/29 08:25:03;;;;;;;3.47;1.48;;;;;;;2.72;100.00;100320.81;6083509;19;20014;-72
2023/11/29 08:27:09;;;;;;;9.02;2.03;;;;;;;2.73;100.00;100332.03;6085241;19;20580;-73
2023/11/29 08:29:14;;;;;;;4.53;2.40;;;;;;;2.70;100.00;100337.28;6084436;19;20006;-73
2023/11/29 08:31:19;;;;;;;2.80;1.55;;;;;;;2.64;100.00;100341.69;6085763;19;20474;-72
2023/11/29 08:33:25;;;;;;;1.80;1.25;;;;;;;2.64;100.00;100346.88;6088255;19;20031;-74
2023/11/29 08:35:33;;;;;;;4.28;2.17;;;;;;;2.60;100.00;100336.56;6088730;19;20011;-74
2023/11/29 08:37:38;;;;;;;2.65;1.92;;;;;;;2.56;100.00;100350.47;6090113;19;20010;-75
2023/11/29 08:39:43;;;;;;;1.88;1.70;;;;;;;2.54;100.00;100354.81;6089475;19;20017;-73
2023/11/29 08:41:48;;;;;;;4.40;2.08;;;;;;;2.48;100.00;100360.97;6092035;19;20017;-73
2023/11/29 08:43:53;;;;;;;5.10;1.77;;;;;;;2.44;100.00;100358.44;6087997;19;20018;-72
2023/11/29 08:45:58;;;;;;;6.40;1.98;;;;;;;2.45;100.00;100362.72;6090547;19;20395;-73
2023/11/29 08:48:03;;;;;;;1.27;1.17;;;;;;;2.39;100.00;100358.50;6091716;19;20015;-75
2023/11/29 08:50:09;;;;;;;0.90;0.90;;;;;;;2.35;100.00;100356.84;6088720;19;20086;-74
2023/11/29 08:52:19;;;;;;;4.72;1.85;;;;;;;2.29;100.00;100351.72;6088376;19;20010;-74
2023/11/29 08:54:26;;;;;;;3.35;1.42;;;;;;;2.16;100.00;100345.88;6084977;19;20469;-74
2023/11/29 08:56:28;;;;;;;3.28;1.90;;;;;;;2.14;100.00;100348.50;6087463;19;20010;-74
2023/11/29 08:58:33;;;;;;;2.85;2.30;;;;;;;2.05;100.00;100351.19;6084732;19;20478;-73
2023/11/29 09:00:41;;;;;;;3.67;1.55;;;;;;;2.04;100.00;100353.81;6086273;19;20014;-75
2023/11/29 09:02:46;;;;;;;15.38;2.20;;;;;;;2.05;100.00;100358.09;6084300;19;20019;-74
2023/11/29 09:04:53;;;;;;;3.22;1.90;;;;;;;2.10;100.00;100356.31;6083825;19;20579;-74
2023/11/29 09:07:04;;;;;;;4.88;1.67;;;;;;;2.15;100.00;100357.97;6085611;19;20039;-73
2023/11/29 09:09:09;;;;;;;1.95;1.73;;;;;;;2.18;100.00;100357.06;6082945;19;20015;-75
2023/11/29 09:11:14;;;;;;;1.48;1.38;;;;;;;2.18;100.00;100355.31;6083580;19;20475;-73
2023/11/29 09:13:19;;;;;;;1.50;1.40;;;;;;;2.25;100.00;100360.44;6081058;19;20006;-72
2023/11/29 09:15:25;;;;;;;4.97;1.90;;;;;;;2.31;100.00;100360.34;6077752;19;20365;-73
2023/11/29 09:17:30;;;;;;;3.45;2.03;;;;;;;2.42;100.00;100355.84;6083551;19;20011;-73
2023/11/29 09:19:40;;;;;;;3.85;1.55;;;;;;;2.49;100.00;100360.06;6083817;19;20455;-73
2023/11/29 09:21:45;;;;;;;5.20;1.75;;;;;;;2.57;100.00;100363.41;6082912;19;20678;-73
2023/11/29 09:23:50;;;;;;;3.42;1.70;;;;;;;2.57;100.00;100368.59;6082796;19;20244;-73
2023/11/29 09:25:57;;;;;;;2.08;1.40;;;;;;;2.59;100.00;100372.03;6083830;19;20007;-73
2023/11/29 09:28:06;;;;;;;3.63;2.00;;;;;;;2.67;100.00;100373.66;6084187;19;20077;-73
2023/11/29 09:30:13;;;;;;;3.40;1.90;;;;;;;2.75;100.00;100376.97;6081504;19;20462;-74
2023/11/29 09:32:18;;;;;;;6.97;2.20;;;;;;;2.66;100.00;100377.09;6081702;19;20063;-74
2023/11/29 09:34:20;;;;;;;3.47;2.40;;;;;;;2.67;100.00;100371.06;6081198;19;20010;-73
2023/11/29 09:36:25;;;;;;;3.85;1.88;;;;;;;2.64;100.00;100383.19;6082986;19;20007;-74
2023/11/29 09:38:30;;;;;;;2.88;1.60;;;;;;;2.53;100.00;100379.91;6080106;19;20042;-74
2023/11/29 09:40:32;;;;;;;1.08;1.05;;;;;;;2.57;100.00;100383.31;6084430;19;20476;-72
2023/11/29 09:42:40;;;;;;;4.28;2.03;;;;;;;2.52;100.00;100383.38;6084153;19;20034;-73
2023/11/29 09:44:47;;;;;;;1.48;1.38;;;;;;;2.57;100.00;100384.16;6085832;19;20047;-75
2023/11/29 09:46:53;;;;;;;5.32;1.40;;;;;;;2.57;100.00;100373.78;6086206;19;20064;-73